Airfield :
LOGIN :

Register | Disclaimer

   EN    FR    IT 

 










Legend :    VFR   Marginal VFR   IFR   Intensive IFR   Very Intensive IFR
Visi :
Ceiling :
>= 8 km
>= 3000ft
5 to 8 km
1000 to 3000 ft
1500m to 5 km
500 to 1000 ft
800 to 1500m
200 to 500 ft
< 800m
< 200 ft
Symbols :   Thunderstorms  Fog  Heavy snow  Heavy precipitations  Wind > 20 kt
SIGMETs :     Misc.  Thunderstorms  Icing  Turbulence  Mountain Waves  Volcanic Ashes







- Airport Elevation : 433 ft
- IATA code : CCF
- Download approach charts


LFMK - Carcassonne

CURRENT METAR :
  • 141430Z AUTO 29014KT 9999 BKN043 OVC064 14/07 Q1011 NOSIG

EXPIRED METARs :
  • 141400Z AUTO 29012KT 250V310 9999 FEW047 BKN066 15/07 Q1011 NOSIG
  • 141330Z AUTO 29011KT 250V310 9999 BKN070 16/08 Q1012 NOSIG
  • 141300Z AUTO 28012KT CAVOK 15/07 Q1012 NOSIG
  • 141230Z AUTO 30011KT 260V320 CAVOK 15/08 Q1012 NOSIG
  • 141200Z AUTO 30011KT CAVOK 15/09 Q1013 NOSIG

TAF TAF LFMK
Valid from the 14 at 15:00 until the 15 at 15:00 UTC


141400Z 1415/1515 28010KT 9999 NSC
BECMG 1417/1420 BKN040
TEMPO 1420/1508 27020KT RA BKN030
TEMPO 1513/1515 27020G35KT SHRA BKN030TCU
No reported NOTAMs for that airfield.
2 SIGMETs reported for the Bordeaux FIR (LFBB) :
 
Severe turbulence
LFBB SIGMET 2 VALID 141430/141830 LFPW
LFBB BORDEAUX FIR/UIR SEV TURB FCST WI N4630 E00300 - N4345 E00245 - N4600 E00130 - N4630 E00300 SFC/FL080 STNR INTSF=
Severe turbulence
LFBB SIGMET 1 VALID 141400/141700 LFPW
LFBB BORDEAUX FIR/UIR SEV TURB FCST WI N4545 W00145 - N4630 W00130 - N4630 W00100 - N4545 W00030 - N4545 W00145 SFC/FL050 MOV S 30KT NC=



MET'MAP, your aeronautical weather chart ! - Copyright ORBIFLY December 2007 - Disclaimer

ORBIFLY MET'MAP TEAM :

Programming & Development : Alexandra Zaïnal
Concept & Development : Baudouin d'Aumeries
Co-Development & Prog : Marc-Olivier Méhu
Technical & hardware support : Manuel Goepfert

Contact : metmap@orbifly.com




SOURCES & CREDITS :

   NOAA